ADDS METAR Data INFO
IDs: Format: Raw Decoded Include TAF

Data at: 2231 UTC 22 Aug 2017

KMHT 222153Z 20010G18KT 10SM FEW050 BKN250 31/19 A2973 RMK AO2 SLP074 T03110189
KMHT 222053Z 21012KT 10SM FEW050 BKN250 32/19 A2975 RMK AO2 SLP082 T03220189 56033
KMHT 221953Z 20011G18KT 10SM SCT045 SCT250 32/19 A2976 RMK AO2 SLP085 T03170194
KMHT 221853Z 19013KT 10SM SCT040 BKN250 31/21 A2980 RMK AO2 SLP099 T03110206
KMHT 221753Z 21009G19KT 10SM SCT033 BKN042 BKN250 30/20 A2985 RMK AO2 SLP115 T03000200 10306 20211 58026
KMHT 221653Z 19011G19KT 10SM SCT030 BKN220 BKN250 29/20 A2987 RMK AO2 SLP124 T02940200
KMHT 221553Z 21009G16KT 10SM SCT025 BKN220 BKN250 28/20 A2991 RMK AO2 SLP137 T02830200
KMHT 221453Z 22008KT 10SM FEW042 BKN250 27/19 A2993 RMK AO2 SLP143 T02720194 58019
KMHT 221353Z 21005KT 10SM SCT250 26/19 A2995 RMK AO2 SLP151 T02560194
KMHT 221253Z VRB03KT 10SM SCT250 23/19 A2997 RMK AO2 SLP158 T02330189
KMHT 221153Z 00000KT 10SM FEW180 SCT250 21/18 A2998 RMK AO2 SLP162 T02110178 10211 20194 58004
KMHT 221053Z 19003KT 10SM SCT250 21/17 A2999 RMK AO2 SLP164 T02060172
KMHT 220953Z 19003KT 10SM CLR 21/17 A2999 RMK AO2 SLP165 T02060172
KMHT 220853Z 00000KT 10SM CLR 21/17 A2999 RMK AO2 SLP166 T02060167 56015
KMHT 220753Z 00000KT 10SM CLR 21/17 A3000 RMK AO2 SLP168 T02060167
KMHT 220653Z 00000KT 10SM CLR 21/17 A3002 RMK AO2 SLP173 T02060172
KMHT 220553Z 17003KT 10SM CLR 21/17 A3004 RMK AO2 SLP181 T02110167 10261 20211 58000
KMHT 220453Z 19004KT 10SM CLR 21/17 A3004 RMK AO2 SLP181 T02110172 402940156
KMHT 220353Z 19004KT 10SM CLR 22/17 A3004 RMK AO2 SLP182 T02170172
KMHT 220253Z 19004KT 10SM CLR 22/18 A3004 RMK AO2 SLP181 T02170178 58003
KMHT 220153Z 21004KT 10SM CLR 23/18 A3005 RMK AO2 SLP186 T02330178
KMHT 220053Z 18004KT 10SM CLR 24/18 A3005 RMK AO2 SLP186 T02440178
KMHT 212353Z 20004KT 10SM CLR 26/18 A3005 RMK AO2 SLP185 T02610178 10294 20261 55003
KMHT 212253Z 24005KT 10SM CLR 28/16 A3005 RMK AO2 SLP185 T02830156
KMHT 212153Z 25005KT 10SM FEW250 29/14 A3005 RMK AO2 SLP185 T02940144
KMHT 212053Z 25011G16KT 10SM FEW250 29/14 A3006 RMK AO2 SLP187 T02940144 56011
KMHT 211953Z 24006KT 10SM FEW250 29/15 A3007 RMK AO2 SLP190 T02940150
KMHT 211853Z 26005KT 10SM FEW045 FEW200 SCT250 28/16 A3007 RMK AO2 SLP193 T02830156
KMHT 211753Z 26005KT 10SM FEW045 FEW180 BKN250 29/16 A3009 RMK AO2 SLP198 T02890156 10289 20172 58014
KMHT 211653Z 26008KT 10SM FEW045 FEW180 BKN200 BKN250 28/16 A3011 RMK AO2 SLP204 T02830161
KMHT 211553Z VRB05KT 10SM FEW043 FEW180 BKN200 BKN250 27/16 A3012 RMK AO2 SLP210 T02670161
KMHT 211453Z VRB03KT 10SM FEW180 BKN250 26/16 A3013 RMK AO2 SLP213 T02610161 56010
KMHT 211353Z 00000KT 10SM FEW180 BKN250 23/16 A3013 RMK AO2 SLP214 T02330156
KMHT 211253Z 00000KT 10SM FEW180 BKN250 20/15 A3015 RMK AO2 SLP220 T02000150
KMHT 211153Z 00000KT 10SM FEW180 BKN250 17/14 A3016 RMK AO2 SLP224 T01720139 10183 20156 51011
KMHT 211053Z 20003KT 10SM BKN250 16/13 A3015 RMK AO2 SLP220 T01560128